Time;durP1;ratioP1;P1;durP2;ratioP2;P2;SDS_P1;SDS_P2;PMS_P1;PMS_P2;Temp;Humidity;BMP_temperature;BMP_pressure;BME280_temperature;BME280_humidity;BME280_pressure;Samples;Min_cycle;Max_cycle;Signal;HPM_P1;HPM_P2
2022/07/07 00:00:21;;;;;;;5.30;2.37;;;20.70;60.60;;;;;;4995972;28;20463;-73
2022/07/07 00:02:48;;;;;;;3.43;2.37;;;20.70;61.30;;;;;;4995713;28;20538;-73
2022/07/07 00:05:15;;;;;;;2.53;2.30;;;20.70;61.50;;;;;;4995543;28;20495;-73
2022/07/07 00:07:42;;;;;;;5.50;2.63;;;20.70;61.30;;;;;;4995926;28;20455;-73
2022/07/07 00:10:10;;;;;;;3.90;2.57;;;20.60;61.40;;;;;;4995963;28;20444;-73
2022/07/07 00:12:37;;;;;;;4.10;2.20;;;20.60;61.90;;;;;;4995968;28;20437;-73
2022/07/07 00:15:07;;;;;;;7.03;2.13;;;20.60;61.80;;;;;;4995865;28;20464;-73
2022/07/07 00:17:34;;;;;;;2.70;1.87;;;20.70;62.60;;;;;;4995687;28;20447;-73
2022/07/07 00:20:01;;;;;;;3.47;2.43;;;20.70;62.50;;;;;;4995683;28;20828;-73
2022/07/07 00:22:27;;;;;;;2.40;1.60;;;20.60;63.00;;;;;;4995056;28;20452;-73
2022/07/07 00:24:54;;;;;;;5.03;1.87;;;20.60;63.50;;;;;;4995407;28;20524;-73
2022/07/07 00:27:21;;;;;;;2.93;1.67;;;20.60;64.00;;;;;;4995456;28;20459;-73
2022/07/07 00:29:48;;;;;;;6.07;2.30;;;20.60;64.60;;;;;;4995618;28;20456;-73
2022/07/07 00:32:16;;;;;;;2.27;1.80;;;20.60;64.90;;;;;;4995764;28;20487;-73
2022/07/07 00:34:43;;;;;;;2.27;1.97;;;20.50;65.50;;;;;;4995317;28;20471;-73
2022/07/07 00:37:09;;;;;;;2.90;1.67;;;20.50;66.50;;;;;;4995170;28;20460;-73
2022/07/07 00:39:36;;;;;;;7.43;2.10;;;20.50;66.70;;;;;;4995164;28;20519;-73
2022/07/07 00:42:04;;;;;;;3.10;1.90;;;20.50;67.70;;;;;;4994882;28;20532;-73
2022/07/07 00:44:30;;;;;;;4.43;2.13;;;20.50;67.20;;;;;;4994553;28;20504;-73
2022/07/07 00:46:59;;;;;;;2.03;1.83;;;20.40;68.30;;;;;;4994803;28;20516;-72
2022/07/07 00:49:28;;;;;;;3.10;1.80;;;20.40;67.90;;;;;;4995016;28;20970;-72
2022/07/07 00:51:54;;;;;;;2.90;2.27;;;20.40;68.60;;;;;;4995026;28;20452;-72
2022/07/07 00:54:21;;;;;;;4.30;2.60;;;20.40;68.70;;;;;;4995163;28;20472;-73
2022/07/07 00:56:48;;;;;;;1.90;1.80;;;20.40;69.10;;;;;;4994929;28;20939;-72
2022/07/07 00:59:15;;;;;;;2.70;1.77;;;20.40;69.10;;;;;;4995584;28;20452;-72
2022/07/07 01:01:43;;;;;;;4.50;2.20;;;20.40;68.70;;;;;;4994809;28;20463;-73
2022/07/07 01:04:12;;;;;;;2.33;1.90;;;20.40;69.80;;;;;;4995002;28;20472;-73
2022/07/07 01:06:41;;;;;;;2.63;2.20;;;20.30;68.90;;;;;;4994312;28;20515;-72
2022/07/07 01:09:08;;;;;;;2.53;1.90;;;20.40;68.60;;;;;;4993770;28;20452;-72
2022/07/07 01:11:46;;;;;;;3.40;2.47;;;20.40;69.70;;;;;;4994275;28;20456;-72
2022/07/07 01:14:14;;;;;;;3.33;2.50;;;20.30;69.00;;;;;;4995230;28;20877;-72
2022/07/07 01:16:41;;;;;;;7.27;2.50;;;20.30;68.60;;;;;;4995038;28;20948;-72
2022/07/07 01:19:08;;;;;;;5.10;2.83;;;20.20;68.80;;;;;;4995009;28;20451;-72
2022/07/07 01:21:41;;;;;;;6.00;3.20;;;20.30;69.10;;;;;;4995051;28;20461;-72
2022/07/07 01:24:10;;;;;;;3.20;2.90;;;20.30;69.20;;;;;;4994950;28;21091;-73
2022/07/07 01:26:39;;;;;;;5.20;3.20;;;20.20;69.50;;;;;;4995222;28;20483;-72
2022/07/07 01:29:05;;;;;;;4.77;2.93;;;20.20;70.40;;;;;;4995054;28;20486;-72
2022/07/07 01:31:32;;;;;;;5.70;2.93;;;20.20;71.70;;;;;;4994038;28;20456;-72
2022/07/07 01:33:59;;;;;;;4.63;2.87;;;20.20;71.50;;;;;;4994301;28;20471;-73
2022/07/07 01:36:26;;;;;;;6.20;3.47;;;20.20;72.00;;;;;;4998426;28;20453;-72
2022/07/07 01:38:53;;;;;;;4.63;3.30;;;20.10;72.20;;;;;;4998455;28;20452;-72
2022/07/07 01:41:21;;;;;;;5.00;3.60;;;20.10;72.80;;;;;;4998249;28;20479;-72
2022/07/07 01:43:48;;;;;;;4.20;3.20;;;20.20;73.10;;;;;;4997819;28;20483;-72
2022/07/07 01:46:15;;;;;;;8.10;3.40;;;20.10;73.20;;;;;;4997711;28;20570;-72
2022/07/07 01:48:42;;;;;;;7.07;3.63;;;20.20;73.10;;;;;;4997679;28;20444;-72
2022/07/07 01:51:09;;;;;;;4.83;3.67;;;20.20;73.60;;;;;;4998113;28;20459;-72
2022/07/07 01:53:36;;;;;;;5.27;3.23;;;20.10;73.80;;;;;;4998087;28;20476;-72
2022/07/07 01:56:04;;;;;;;6.43;4.03;;;20.20;73.60;;;;;;4997917;28;20453;-72
2022/07/07 01:58:33;;;;;;;4.53;3.57;;;20.20;74.20;;;;;;4998177;28;20460;-72
2022/07/07 02:01:00;;;;;;;6.53;3.13;;;20.20;74.70;;;;;;4997651;28;20456;-72
2022/07/07 02:03:27;;;;;;;3.70;3.40;;;20.20;75.90;;;;;;4997725;28;20472;-72
2022/07/07 02:05:53;;;;;;;3.20;2.93;;;20.20;75.30;;;;;;4997487;28;20536;-72
2022/07/07 02:08:20;;;;;;;4.37;3.30;;;20.20;75.40;;;;;;4997235;28;20460;-72
2022/07/07 02:13:32;;;;;;;5.40;3.20;;;20.20;76.20;;;;;;4980500;28;20452;-72
2022/07/07 02:15:59;;;;;;;10.20;3.23;;;20.10;76.30;;;;;;4997306;28;20445;-72
2022/07/07 02:18:26;;;;;;;5.90;2.93;;;20.10;76.80;;;;;;4997379;28;20455;-72
2022/07/07 02:20:53;;;;;;;5.70;3.30;;;20.10;77.40;;;;;;4998069;28;20471;-72
2022/07/07 02:23:20;;;;;;;3.57;3.20;;;20.00;77.50;;;;;;4997345;28;20977;-72
2022/07/07 02:25:47;;;;;;;6.90;3.03;;;20.10;77.70;;;;;;4997112;28;20484;-72
2022/07/07 02:28:13;;;;;;;3.43;2.93;;;20.10;77.30;;;;;;4997335;28;20455;-72
2022/07/07 02:30:42;;;;;;;5.03;3.27;;;20.10;77.20;;;;;;4996915;28;20448;-72
2022/07/07 02:33:09;;;;;;;7.70;4.10;;;20.10;77.40;;;;;;4997305;28;20456;-72
2022/07/07 02:35:37;;;;;;;4.27;3.13;;;20.00;77.70;;;;;;4996926;28;20510;-72
2022/07/07 02:38:03;;;;;;;4.60;3.00;;;20.00;78.70;;;;;;4996582;28;20452;-72
2022/07/07 02:40:30;;;;;;;5.10;3.87;;;19.90;78.20;;;;;;4996828;28;20444;-73
2022/07/07 02:42:57;;;;;;;6.37;3.23;;;19.90;78.80;;;;;;4997105;28;20452;-72
2022/07/07 02:45:24;;;;;;;4.33;3.53;;;19.90;78.80;;;;;;4996239;28;20865;-72
2022/07/07 02:47:52;;;;;;;4.90;3.90;;;19.90;78.90;;;;;;4996723;28;20459;-72
2022/07/07 02:50:19;;;;;;;4.73;3.20;;;19.90;79.20;;;;;;4996821;28;20463;-72
2022/07/07 02:52:46;;;;;;;4.87;3.03;;;19.90;79.80;;;;;;4996997;28;20460;-72
2022/07/07 02:55:13;;;;;;;7.37;3.40;;;19.90;79.90;;;;;;4996455;28;20530;-72
2022/07/07 02:57:40;;;;;;;3.57;3.27;;;19.90;80.10;;;;;;4996606;28;20960;-72
2022/07/07 03:00:09;;;;;;;3.70;2.90;;;19.80;80.30;;;;;;4996444;28;20459;-72
2022/07/07 03:02:36;;;;;;;3.47;3.03;;;19.80;80.20;;;;;;4996069;28;20859;-72
2022/07/07 03:05:05;;;;;;;4.00;3.10;;;19.90;80.70;;;;;;4996263;28;20479;-72
2022/07/07 03:07:31;;;;;;;4.40;3.07;;;19.90;81.00;;;;;;4996030;28;20797;-72
2022/07/07 03:09:58;;;;;;;4.90;3.33;;;19.90;81.90;;;;;;4996387;28;20835;-72
2022/07/07 03:12:25;;;;;;;7.30;3.30;;;19.80;81.60;;;;;;4996377;28;20511;-72
2022/07/07 03:14:52;;;;;;;5.23;3.60;;;19.80;81.60;;;;;;4996144;28;21014;-72
2022/07/07 03:17:20;;;;;;;7.37;3.43;;;19.80;81.70;;;;;;4996003;28;20812;-72
2022/07/07 03:19:47;;;;;;;4.90;3.57;;;19.80;81.90;;;;;;4996490;28;20468;-72
2022/07/07 03:22:15;;;;;;;3.40;2.70;;;19.70;82.20;;;;;;4995792;28;20448;-72
2022/07/07 03:24:41;;;;;;;5.40;3.33;;;19.70;82.30;;;;;;4996122;28;20468;-72
2022/07/07 03:27:08;;;;;;;3.33;2.90;;;19.70;82.40;;;;;;4996355;28;20492;-72
2022/07/07 03:29:35;;;;;;;3.27;2.97;;;19.80;82.90;;;;;;4995676;28;20947;-72
2022/07/07 03:32:02;;;;;;;5.33;3.17;;;19.70;82.60;;;;;;4996260;28;20449;-72
2022/07/07 03:34:29;;;;;;;2.93;2.70;;;19.70;83.10;;;;;;4996208;28;20487;-72
2022/07/07 03:36:56;;;;;;;5.20;3.70;;;19.70;83.60;;;;;;4996269;28;20440;-72
2022/07/07 03:39:24;;;;;;;6.37;3.70;;;19.60;84.20;;;;;;4995751;28;20428;-72
2022/07/07 03:41:51;;;;;;;4.50;3.27;;;19.60;86.00;;;;;;4995576;28;20981;-72
2022/07/07 03:44:18;;;;;;;3.73;3.43;;;19.60;87.90;;;;;;4995751;28;20595;-72
2022/07/07 03:46:45;;;;;;;4.20;3.47;;;19.40;88.80;;;;;;4995790;28;20487;-72
2022/07/07 03:49:12;;;;;;;4.60;3.80;;;19.40;89.30;;;;;;4995705;28;20456;-72
2022/07/07 03:51:39;;;;;;;4.20;3.33;;;19.40;90.00;;;;;;4995757;28;20460;-73
2022/07/07 03:54:07;;;;;;;4.80;3.53;;;19.40;90.40;;;;;;4996034;28;20476;-73
2022/07/07 03:56:35;;;;;;;5.23;3.90;;;19.30;90.40;;;;;;4996149;28;20445;-72
2022/07/07 03:59:02;;;;;;;6.83;3.93;;;19.30;90.80;;;;;;4995400;28;20432;-72
2022/07/07 04:01:29;;;;;;;4.10;3.67;;;19.30;90.90;;;;;;4995922;28;20455;-72
2022/07/07 04:03:55;;;;;;;4.70;3.63;;;19.30;91.00;;;;;;4995573;28;20475;-72
2022/07/07 04:06:22;;;;;;;5.17;3.97;;;19.30;90.80;;;;;;4995820;28;20488;-72
2022/07/07 04:08:50;;;;;;;4.07;3.27;;;19.30;90.80;;;;;;4996211;28;20463;-72
2022/07/07 04:11:17;;;;;;;4.10;3.33;;;19.30;90.80;;;;;;4996213;28;20461;-72
2022/07/07 04:13:45;;;;;;;5.57;3.80;;;19.30;90.90;;;;;;4996118;28;20850;-72
2022/07/07 04:16:12;;;;;;;3.90;3.20;;;19.30;91.00;;;;;;4995553;28;20445;-71
2022/07/07 04:18:39;;;;;;;6.00;3.00;;;19.40;91.00;;;;;;4995682;28;20448;-71
2022/07/07 04:21:06;;;;;;;6.93;3.50;;;19.40;90.70;;;;;;4995221;28;20830;-71
2022/07/07 04:23:32;;;;;;;3.70;3.40;;;19.40;90.80;;;;;;4995246;28;20468;-72
2022/07/07 04:25:59;;;;;;;3.23;2.63;;;19.40;91.00;;;;;;4995291;28;20478;-72
2022/07/07 04:28:26;;;;;;;7.30;3.53;;;19.40;90.90;;;;;;4994756;28;20944;-72
2022/07/07 04:30:54;;;;;;;5.03;3.37;;;19.40;90.90;;;;;;4994093;28;20448;-71
2022/07/07 04:33:21;;;;;;;4.77;3.27;;;19.50;90.80;;;;;;4994339;28;20450;-71
2022/07/07 04:35:48;;;;;;;4.10;3.20;;;19.50;90.70;;;;;;4995603;28;20453;-71
2022/07/07 04:38:15;;;;;;;4.63;3.53;;;19.50;90.80;;;;;;4995619;28;20467;-71
2022/07/07 04:40:42;;;;;;;3.57;3.10;;;19.50;90.80;;;;;;4995264;28;20449;-72
2022/07/07 04:43:09;;;;;;;3.57;3.23;;;19.50;90.70;;;;;;4994948;28;21014;-72
2022/07/07 04:45:36;;;;;;;4.93;3.73;;;19.40;90.60;;;;;;4994692;28;20464;-72
2022/07/07 04:48:04;;;;;;;5.30;2.77;;;19.50;90.80;;;;;;4994991;28;20456;-72
2022/07/07 04:50:31;;;;;;;5.70;3.27;;;19.50;90.70;;;;;;4995256;28;20452;-71
2022/07/07 04:52:58;;;;;;;3.20;3.00;;;19.50;90.70;;;;;;4994885;28;20871;-72
2022/07/07 04:55:25;;;;;;;9.77;2.80;;;19.50;90.60;;;;;;4995165;28;20479;-71
2022/07/07 04:57:52;;;;;;;6.60;4.00;;;19.50;90.80;;;;;;4994677;28;20440;-72
2022/07/07 05:00:19;;;;;;;6.43;3.30;;;19.50;90.90;;;;;;4995691;28;20828;-72
2022/07/07 05:02:46;;;;;;;5.30;3.03;;;19.60;91.30;;;;;;4995214;28;20467;-72
2022/07/07 05:05:14;;;;;;;5.47;3.40;;;19.50;91.40;;;;;;4995308;28;20843;-72
2022/07/07 05:07:41;;;;;;;5.37;3.67;;;19.50;91.60;;;;;;4995208;28;20487;-72
2022/07/07 05:10:08;;;;;;;3.60;3.07;;;19.40;91.70;;;;;;4997579;28;20452;-72
2022/07/07 05:12:35;;;;;;;5.30;3.10;;;19.50;91.40;;;;;;4998734;28;20983;-72
2022/07/07 05:15:02;;;;;;;5.40;3.00;;;19.50;91.40;;;;;;4998752;28;20468;-72
2022/07/07 05:17:29;;;;;;;4.63;2.70;;;19.60;91.30;;;;;;4999021;28;20451;-72
2022/07/07 05:19:56;;;;;;;7.03;3.10;;;19.60;91.30;;;;;;4999154;28;20433;-72
2022/07/07 05:22:24;;;;;;;3.87;3.43;;;19.60;91.20;;;;;;4998696;28;20464;-70
2022/07/07 05:24:51;;;;;;;3.67;3.37;;;19.60;91.70;;;;;;4997825;28;20482;-69
2022/07/07 05:27:18;;;;;;;7.03;4.40;;;19.50;93.10;;;;;;4997373;28;20487;-69
2022/07/07 05:29:44;;;;;;;8.60;3.23;;;19.50;93.70;;;;;;4997522;28;20955;-70
2022/07/07 05:32:11;;;;;;;2.50;2.10;;;19.30;94.80;;;;;;4997493;28;20456;-70
2022/07/07 05:34:38;;;;;;;4.10;2.13;;;19.20;94.60;;;;;;4997632;28;20479;-70
2022/07/07 05:37:05;;;;;;;3.33;2.57;;;19.10;94.60;;;;;;4998745;28;20456;-70
2022/07/07 05:39:33;;;;;;;2.50;2.30;;;19.10;95.20;;;;;;4998300;28;20456;-71
2022/07/07 05:42:00;;;;;;;3.00;1.90;;;19.00;95.30;;;;;;4998299;28;20483;-72
2022/07/07 05:44:27;;;;;;;3.60;2.40;;;18.90;95.50;;;;;;4998377;28;20866;-72
2022/07/07 05:46:54;;;;;;;2.53;2.10;;;18.80;96.10;;;;;;4997756;28;20492;-72
2022/07/07 05:49:21;;;;;;;5.77;2.90;;;18.80;96.40;;;;;;4998144;28;20432;-72
2022/07/07 05:51:48;;;;;;;1.80;1.70;;;18.70;96.70;;;;;;4997554;28;20459;-72
2022/07/07 05:54:14;;;;;;;1.90;1.80;;;18.70;96.30;;;;;;4998019;28;20479;-72
2022/07/07 05:56:42;;;;;;;2.60;1.90;;;18.70;96.60;;;;;;4997936;28;20448;-72
2022/07/07 05:59:09;;;;;;;2.47;2.23;;;18.80;96.70;;;;;;4997768;28;20815;-72
2022/07/07 06:01:36;;;;;;;3.93;2.30;;;18.90;96.70;;;;;;4997991;28;20870;-71
2022/07/07 06:04:03;;;;;;;2.70;2.50;;;18.90;96.40;;;;;;4997117;28;20476;-71
2022/07/07 06:06:30;;;;;;;4.27;2.30;;;19.00;96.30;;;;;;4996911;28;20464;-71
2022/07/07 06:08:56;;;;;;;4.13;2.67;;;19.00;96.60;;;;;;4996908;28;20456;-71
2022/07/07 06:11:23;;;;;;;6.40;2.57;;;18.90;96.80;;;;;;4997181;28;20455;-72
2022/07/07 06:13:51;;;;;;;2.70;2.50;;;19.00;96.90;;;;;;4997407;28;20480;-71
2022/07/07 06:16:38;;;;;;;3.53;3.10;;;19.00;96.90;;;;;;4997343;28;20487;-72
2022/07/07 06:19:05;;;;;;;4.53;3.23;;;19.00;97.00;;;;;;4997636;28;20460;-71
2022/07/07 06:21:32;;;;;;;3.47;2.83;;;19.10;97.30;;;;;;4996449;28;20448;-71
2022/07/07 06:23:58;;;;;;;3.17;2.87;;;19.20;96.90;;;;;;4997413;28;20472;-72
2022/07/07 06:26:25;;;;;;;4.20;2.97;;;19.30;97.00;;;;;;4997431;28;20488;-72
2022/07/07 06:28:53;;;;;;;5.77;2.60;;;19.40;97.10;;;;;;4997541;28;20453;-72
2022/07/07 06:31:20;;;;;;;3.50;3.10;;;19.40;96.60;;;;;;4997456;28;20832;-72
2022/07/07 06:33:47;;;;;;;2.60;2.40;;;19.50;97.10;;;;;;4997584;28;20559;-72
2022/07/07 06:36:14;;;;;;;3.67;3.10;;;19.60;96.90;;;;;;4998109;28;20827;-72
2022/07/07 06:38:42;;;;;;;2.70;2.50;;;19.60;96.10;;;;;;4997918;28;20463;-72
2022/07/07 06:41:09;;;;;;;2.50;2.30;;;19.60;96.40;;;;;;4998536;28;20432;-72
2022/07/07 06:43:36;;;;;;;6.60;2.53;;;19.50;96.40;;;;;;4998484;28;20578;-72
2022/07/07 06:46:04;;;;;;;2.23;1.90;;;19.50;96.60;;;;;;4998116;28;20432;-72
2022/07/07 06:48:31;;;;;;;2.97;2.77;;;19.50;96.00;;;;;;4998330;28;20488;-72
2022/07/07 06:50:58;;;;;;;2.23;2.00;;;19.50;96.30;;;;;;4997489;28;20815;-72
2022/07/07 06:53:25;;;;;;;2.20;2.00;;;19.50;96.70;;;;;;4998248;28;20986;-72
2022/07/07 06:55:52;;;;;;;2.57;2.37;;;19.50;96.50;;;;;;4998090;28;21048;-71
2022/07/07 06:58:19;;;;;;;2.60;1.80;;;19.70;97.30;;;;;;4998974;28;20449;-72
2022/07/07 07:00:46;;;;;;;3.33;1.90;;;19.90;96.80;;;;;;4998976;28;20457;-71
2022/07/07 07:03:14;;;;;;;1.47;1.37;;;20.10;95.70;;;;;;4999523;28;20456;-72
2022/07/07 07:05:41;;;;;;;1.57;0.90;;;20.20;94.40;;;;;;4999417;28;20535;-72
2022/07/07 07:08:08;;;;;;;1.70;1.17;;;20.20;94.30;;;;;;4998704;28;21006;-72
2022/07/07 07:10:35;;;;;;;1.90;1.00;;;20.40;93.60;;;;;;4999603;28;20459;-71
2022/07/07 07:13:03;;;;;;;3.80;2.10;;;20.40;93.20;;;;;;5001069;28;20629;-72
2022/07/07 07:15:29;;;;;;;2.63;1.27;;;20.40;93.30;;;;;;5000000;28;20483;-72
2022/07/07 07:17:57;;;;;;;2.40;1.30;;;20.40;92.80;;;;;;5000660;28;20455;-72
2022/07/07 07:20:25;;;;;;;4.73;1.23;;;20.50;92.90;;;;;;5000976;28;20547;-72
2022/07/07 07:22:52;;;;;;;4.20;1.27;;;20.60;93.00;;;;;;5000267;28;20456;-72
2022/07/07 07:25:19;;;;;;;3.43;1.50;;;20.90;93.30;;;;;;5003139;28;20480;-70
2022/07/07 07:27:46;;;;;;;2.30;1.50;;;21.00;91.40;;;;;;5005935;28;20484;-70
2022/07/07 07:30:14;;;;;;;1.83;1.50;;;21.10;91.10;;;;;;5001446;28;20460;-70
2022/07/07 07:32:41;;;;;;;2.27;1.73;;;21.20;91.20;;;;;;5000936;28;20511;-70
2022/07/07 07:35:08;;;;;;;2.17;1.40;;;21.30;90.80;;;;;;5000580;28;20472;-70
2022/07/07 07:37:38;;;;;;;1.17;1.07;;;21.20;90.00;;;;;;5000168;28;20448;-70
2022/07/07 07:40:07;;;;;;;2.47;1.30;;;21.20;89.80;;;;;;5000089;28;20551;-70
2022/07/07 07:42:33;;;;;;;2.20;0.90;;;21.10;90.50;;;;;;5001089;28;20465;-70
2022/07/07 07:45:12;;;;;;;1.93;1.20;;;20.80;88.00;;;;;;5001760;28;20491;-70
2022/07/07 07:47:41;;;;;;;2.00;0.83;;;20.60;89.50;;;;;;5001431;28;20979;-70
2022/07/07 07:50:10;;;;;;;4.83;0.90;;;20.50;90.10;;;;;;5000906;28;20774;-70
2022/07/07 07:52:39;;;;;;;1.80;1.03;;;20.50;90.20;;;;;;4999302;28;20459;-70
2022/07/07 07:55:07;;;;;;;3.43;0.90;;;20.50;90.20;;;;;;4997026;28;20467;-70
2022/07/07 07:57:34;;;;;;;5.43;1.47;;;20.50;90.40;;;;;;4996401;28;20452;-71
2022/07/07 08:00:01;;;;;;;2.63;1.07;;;20.60;90.20;;;;;;4999354;28;20452;-71
2022/07/07 08:02:30;;;;;;;3.63;1.40;;;20.60;89.40;;;;;;4999273;28;20455;-71
2022/07/07 08:04:57;;;;;;;4.00;1.13;;;20.60;89.30;;;;;;4999220;28;20476;-71
2022/07/07 08:07:23;;;;;;;2.80;1.00;;;20.70;89.40;;;;;;4998581;28;20518;-71
2022/07/07 08:09:51;;;;;;;1.90;1.33;;;20.70;89.30;;;;;;4998248;28;20821;-71
2022/07/07 08:12:18;;;;;;;2.17;0.97;;;20.70;89.10;;;;;;4997959;28;20457;-71
2022/07/07 08:14:45;;;;;;;2.53;1.27;;;20.70;88.80;;;;;;4997790;28;20472;-71
2022/07/07 08:17:12;;;;;;;2.93;1.30;;;20.70;88.70;;;;;;4997931;28;20488;-71
2022/07/07 08:19:39;;;;;;;4.00;1.97;;;20.80;88.90;;;;;;4998234;28;20474;-71
2022/07/07 08:22:06;;;;;;;4.97;1.80;;;21.00;88.70;;;;;;4997764;28;20448;-71
2022/07/07 08:24:32;;;;;;;7.00;2.23;;;21.10;87.80;;;;;;4997678;28;20483;-71
2022/07/07 08:27:00;;;;;;;3.17;1.93;;;21.10;87.70;;;;;;4998576;28;20986;-71
2022/07/07 08:29:27;;;;;;;3.80;1.57;;;21.10;87.10;;;;;;4998185;28;20452;-71
2022/07/07 08:31:54;;;;;;;3.73;1.27;;;21.00;86.40;;;;;;4998907;28;20456;-71
2022/07/07 08:34:21;;;;;;;7.33;1.47;;;21.00;85.40;;;;;;4997938;28;20480;-71
2022/07/07 08:36:48;;;;;;;2.77;1.60;;;21.10;84.80;;;;;;4998785;28;20452;-71
2022/07/07 08:39:15;;;;;;;3.30;1.20;;;21.20;85.30;;;;;;4998179;28;20448;-70
2022/07/07 08:41:42;;;;;;;3.70;1.00;;;21.10;83.40;;;;;;4997712;28;20490;-71
2022/07/07 08:44:12;;;;;;;4.20;1.40;;;21.10;82.70;;;;;;4998738;28;20494;-70
2022/07/07 08:46:39;;;;;;;4.40;1.07;;;21.20;84.50;;;;;;5001480;28;20458;-71
2022/07/07 08:49:05;;;;;;;2.77;1.00;;;21.40;82.40;;;;;;5001049;28;20495;-71
2022/07/07 08:51:33;;;;;;;3.60;1.23;;;21.60;82.10;;;;;;5001416;28;20487;-71
2022/07/07 08:54:02;;;;;;;2.87;0.70;;;22.00;80.40;;;;;;5001215;28;20472;-71
2022/07/07 08:56:29;;;;;;;5.83;0.90;;;22.20;76.80;;;;;;5001678;28;20448;-71
2022/07/07 08:58:56;;;;;;;1.13;0.70;;;22.40;74.70;;;;;;5000674;28;20827;-71
2022/07/07 09:01:26;;;;;;;3.20;1.20;;;22.60;75.00;;;;;;5000682;28;20464;-71
2022/07/07 09:03:52;;;;;;;1.40;1.00;;;22.60;75.30;;;;;;5001094;28;20476;-71
2022/07/07 09:06:19;;;;;;;4.87;1.00;;;22.70;75.00;;;;;;5001354;28;20447;-71
2022/07/07 09:08:46;;;;;;;2.50;0.93;;;22.70;72.60;;;;;;5001778;28;20490;-71
2022/07/07 09:11:12;;;;;;;3.73;1.70;;;22.70;73.40;;;;;;5000866;28;20819;-71
2022/07/07 09:13:39;;;;;;;2.33;0.90;;;22.60;73.60;;;;;;5001583;28;20835;-71
2022/07/07 09:16:15;;;;;;;1.97;1.13;;;22.40;73.10;;;;;;5001327;28;20452;-71
2022/07/07 09:18:45;;;;;;;1.83;0.97;;;22.30;74.50;;;;;;5001077;28;20479;-71
2022/07/07 09:21:26;;;;;;;5.03;1.20;;;22.30;75.10;;;;;;5000927;28;20440;-71
2022/07/07 09:23:56;;;;;;;2.13;1.10;;;22.50;73.70;;;;;;5000953;28;20467;-71
2022/07/07 09:26:35;;;;;;;2.53;0.80;;;22.60;73.10;;;;;;5000794;28;20912;-71
2022/07/07 09:29:03;;;;;;;5.33;0.90;;;22.60;70.10;;;;;;5000152;28;20479;-71
2022/07/07 09:31:53;;;;;;;2.70;1.00;;;22.50;71.50;;;;;;5000242;28;20456;-71
2022/07/07 09:34:22;;;;;;;2.30;1.07;;;22.50;72.30;;;;;;5000618;28;20837;-71
2022/07/07 09:39:45;;;;;;;3.03;1.10;;;23.00;72.50;;;;;;5001024;28;20420;-71
2022/07/07 09:42:20;;;;;;;5.00;1.03;;;23.30;71.40;;;;;;5000598;28;20494;-71
2022/07/07 09:44:48;;;;;;;2.77;0.80;;;23.60;69.10;;;;;;4999934;28;20498;-70
2022/07/07 09:47:15;;;;;;;1.63;1.07;;;23.80;68.00;;;;;;5000105;28;20448;-71
2022/07/07 09:49:44;;;;;;;3.67;1.10;;;24.00;68.10;;;;;;5000585;28;20839;-71
2022/07/07 09:52:18;;;;;;;2.47;0.87;;;24.10;66.00;;;;;;5000848;28;20467;-71
2022/07/07 09:54:49;;;;;;;1.97;1.10;;;24.30;63.80;;;;;;4999641;28;20482;-71
2022/07/07 09:57:16;;;;;;;3.60;1.10;;;24.10;63.40;;;;;;4999949;28;21006;-71
2022/07/07 09:59:43;;;;;;;2.03;0.80;;;23.90;61.20;;;;;;5000162;28;20452;-71
2022/07/07 10:02:18;;;;;;;3.50;1.20;;;23.80;62.50;;;;;;5001297;28;20470;-71
2022/07/07 10:04:48;;;;;;;3.87;0.83;;;23.50;64.40;;;;;;5000260;28;20521;-71
2022/07/07 10:07:19;;;;;;;2.90;0.90;;;23.10;64.70;;;;;;5000611;28;20429;-70
2022/07/07 10:09:50;;;;;;;3.27;0.93;;;22.80;66.70;;;;;;5000436;28;21021;-71
2022/07/07 10:12:17;;;;;;;10.03;1.00;;;22.70;67.60;;;;;;5001009;28;20806;-71
2022/07/07 10:14:46;;;;;;;3.53;1.10;;;22.70;68.50;;;;;;5001102;28;20475;-71
2022/07/07 10:17:16;;;;;;;5.90;1.37;;;22.70;68.90;;;;;;5000474;28;20460;-71
2022/07/07 10:19:43;;;;;;;3.37;1.20;;;22.70;68.60;;;;;;4999504;28;20452;-71
2022/07/07 10:22:13;;;;;;;2.20;0.90;;;22.80;67.90;;;;;;4999146;28;20462;-71
2022/07/07 10:24:42;;;;;;;2.30;1.43;;;23.00;67.50;;;;;;4998245;28;20850;-71
2022/07/07 10:27:14;;;;;;;2.23;1.10;;;23.20;65.60;;;;;;4999301;28;20506;-71
2022/07/07 10:29:43;;;;;;;3.33;1.23;;;23.70;65.60;;;;;;4999536;28;20437;-71
2022/07/07 10:32:11;;;;;;;1.77;1.17;;;24.00;63.30;;;;;;4999380;28;20452;-71
2022/07/07 10:34:40;;;;;;;3.17;1.10;;;24.10;62.40;;;;;;4998394;28;20872;-71
2022/07/07 10:37:12;;;;;;;1.83;1.07;;;24.00;62.10;;;;;;4998184;28;20948;-71
2022/07/07 10:39:44;;;;;;;3.27;1.10;;;23.80;61.50;;;;;;4998043;28;20449;-71
2022/07/07 10:42:35;;;;;;;5.43;1.33;;;23.40;62.90;;;;;;4998694;28;20436;-71
2022/07/07 10:45:04;;;;;;;2.47;1.10;;;23.10;64.00;;;;;;4988532;28;20488;-71
2022/07/07 10:47:32;;;;;;;2.20;0.90;;;22.80;65.10;;;;;;4998223;28;20499;-71
2022/07/07 10:50:01;;;;;;;3.97;1.20;;;22.60;66.30;;;;;;4997853;28;20944;-71
2022/07/07 10:52:40;;;;;;;1.90;1.27;;;22.20;68.00;;;;;;4998573;28;20503;-70
2022/07/07 10:55:08;;;;;;;4.27;1.30;;;22.00;69.60;;;;;;4998672;28;20866;-71
2022/07/07 10:57:41;;;;;;;2.13;0.90;;;21.70;70.60;;;;;;4997696;28;20448;-71
2022/07/07 11:00:16;;;;;;;2.63;1.20;;;21.60;71.80;;;;;;4998610;28;21027;-71
2022/07/07 11:02:47;;;;;;;1.33;1.10;;;21.60;72.70;;;;;;4998633;28;20436;-71
2022/07/07 11:05:32;;;;;;;4.50;1.87;;;21.70;73.40;;;;;;4998243;28;20472;-71
2022/07/07 11:08:12;;;;;;;3.83;1.20;;;21.90;72.70;;;;;;4997440;28;20476;-71
2022/07/07 11:10:56;;;;;;;1.60;0.90;;;22.10;71.30;;;;;;4998337;28;20441;-71
2022/07/07 11:13:30;;;;;;;1.40;1.00;;;22.30;70.90;;;;;;4998155;28;20490;-71
2022/07/07 11:16:13;;;;;;;5.03;1.00;;;22.40;69.70;;;;;;4998151;28;20476;-70
2022/07/07 11:18:41;;;;;;;2.00;0.90;;;22.50;70.00;;;;;;4995046;28;20448;-71
2022/07/07 11:21:09;;;;;;;3.60;0.97;;;22.60;69.60;;;;;;4996694;28;20456;-71
2022/07/07 11:23:47;;;;;;;4.77;1.10;;;22.70;68.00;;;;;;4995975;28;20991;-71
2022/07/07 11:26:16;;;;;;;3.00;0.80;;;22.80;69.20;;;;;;4996418;28;20440;-71
2022/07/07 11:28:43;;;;;;;3.50;0.90;;;22.80;68.30;;;;;;4997743;28;20518;-71
2022/07/07 11:31:11;;;;;;;1.67;0.80;;;22.90;66.40;;;;;;4996820;28;20796;-71
2022/07/07 11:33:39;;;;;;;3.20;0.93;;;23.10;66.50;;;;;;4996403;28;20536;-70
2022/07/07 11:36:18;;;;;;;3.57;1.37;;;23.30;65.20;;;;;;4996269;28;20514;-71
2022/07/07 11:38:47;;;;;;;1.87;1.13;;;23.30;64.80;;;;;;4996425;28;20444;-71
2022/07/07 11:41:14;;;;;;;3.00;1.37;;;23.40;64.00;;;;;;4996763;28;20449;-71
2022/07/07 11:43:41;;;;;;;2.03;0.90;;;23.40;63.60;;;;;;4996969;28;20476;-71
2022/07/07 11:46:09;;;;;;;2.43;0.87;;;23.50;65.20;;;;;;4996755;28;20429;-71
2022/07/07 11:48:38;;;;;;;3.33;0.93;;;23.60;65.80;;;;;;4996436;28;20987;-71
2022/07/07 11:51:06;;;;;;;3.53;1.30;;;23.70;64.00;;;;;;4996850;28;20448;-71
2022/07/07 11:53:33;;;;;;;4.07;0.90;;;23.90;64.00;;;;;;4996937;28;20444;-71
2022/07/07 11:56:03;;;;;;;3.10;1.30;;;24.00;64.10;;;;;;4996916;28;20457;-71
2022/07/07 11:58:30;;;;;;;2.30;1.27;;;23.80;61.50;;;;;;4996969;28;20452;-71
2022/07/07 12:00:58;;;;;;;4.70;1.20;;;23.50;62.70;;;;;;4996149;28;20448;-71
2022/07/07 12:03:29;;;;;;;3.93;1.30;;;23.20;64.00;;;;;;4996598;28;20440;-71
2022/07/07 12:05:56;;;;;;;1.90;1.13;;;23.00;65.80;;;;;;4997257;28;20963;-71
2022/07/07 12:08:33;;;;;;;3.17;1.73;;;22.60;67.40;;;;;;4997515;28;20471;-71
2022/07/07 12:11:01;;;;;;;4.53;1.67;;;22.30;70.10;;;;;;4997300;28;20803;-71
2022/07/07 12:13:28;;;;;;;2.63;1.03;;;22.00;72.80;;;;;;4996703;28;20534;-70
2022/07/07 12:15:55;;;;;;;2.10;0.90;;;21.70;74.50;;;;;;4997053;28;20433;-70
2022/07/07 12:18:31;;;;;;;3.83;1.30;;;21.60;76.30;;;;;;4996820;28;20441;-71
2022/07/07 12:21:00;;;;;;;3.63;1.77;;;21.70;75.70;;;;;;4996330;28;20436;-71
2022/07/07 12:23:27;;;;;;;2.37;1.00;;;21.90;75.30;;;;;;4996454;28;20476;-71
2022/07/07 12:26:08;;;;;;;3.30;0.77;;;22.00;73.30;;;;;;4995970;28;20959;-71
2022/07/07 12:28:36;;;;;;;3.93;1.00;;;22.20;73.60;;;;;;4997336;28;20511;-71
2022/07/07 12:31:03;;;;;;;3.33;0.73;;;22.30;71.80;;;;;;4996655;28;20437;-71
2022/07/07 12:33:33;;;;;;;3.87;1.00;;;22.70;72.20;;;;;;4996947;28;20555;-71
2022/07/07 12:36:08;;;;;;;2.93;1.00;;;22.90;70.70;;;;;;4997141;28;20448;-71
2022/07/07 12:38:40;;;;;;;1.80;0.80;;;23.00;69.50;;;;;;4997563;28;20434;-71
2022/07/07 12:41:09;;;;;;;1.80;0.73;;;23.00;69.00;;;;;;4997506;28;20444;-71
2022/07/07 12:43:37;;;;;;;3.50;0.90;;;23.00;69.90;;;;;;4996191;28;20999;-71
2022/07/07 12:46:11;;;;;;;8.10;1.43;;;22.90;69.50;;;;;;4996463;28;20485;-71
2022/07/07 12:48:47;;;;;;;2.40;1.20;;;22.80;69.20;;;;;;4997434;28;20484;-71
2022/07/07 12:51:13;;;;;;;4.57;1.20;;;22.80;70.50;;;;;;4996827;28;20484;-71
2022/07/07 12:53:42;;;;;;;3.30;1.20;;;22.70;71.20;;;;;;4996828;28;20472;-70
2022/07/07 12:56:15;;;;;;;2.80;1.20;;;22.60;71.00;;;;;;4996748;28;20441;-71
2022/07/07 12:58:44;;;;;;;3.00;1.00;;;22.40;72.70;;;;;;4997045;28;20437;-71